Flight Track Log - Related Links

Times and Time Zones

All times are in EST time to prevent confusion due to time zone crossing. See the SKW5550 flight status page for this flight to view local times or setup timezone preferences in your user account.

Time Position Orientation Groundspeed Altitude Reporting Facility
EST Latitude Longitude Course Direction KTS MPH feet Rate Location/Type
Fri 08:12:00 AM 43.7462 -108.2434 157° South  Level Estimated
Fri 08:13:00 AM 43.6536 -108.1517 156° South  Level Estimated
Fri 08:14:00 AM 43.5608 -108.0603 142° Southeast  Level Estimated
Fri 08:15:00 AM 43.4562 -107.9982 157° South  Level FlightAware Approximate
Fri 08:15:50 AM 44.2917 -108.7764 148° Southeast 352 405 18,400  Level Salt Lake Center
Fri 08:18:20 AM 44.0297 -108.6222 158° South 397 457 22,600 1,536 Climbing Denver Center
Fri 08:19:00 AM 43.0372 -107.7519 157° South  Level FlightAware Approximate
Fri 08:19:21 AM 43.9267 -108.5628 157° South 404 465 23,800  Level Denver Center
Fri 08:20:00 AM 42.9462 -107.6581 143° Southeast  Level Estimated
Fri 08:20:21 AM 43.8211 -108.5025 158° South 412 474 25,000  Level Denver Center
Fri 08:21:00 AM 42.8499 -107.5749 148° Southeast  Level FlightAware Approximate
Fri 08:21:22 AM 43.7106 -108.4400 158° South 429 494 25,000  Level Denver Center
Fri 08:22:22 AM 43.5994 -108.3764 157° South 433 498 25,000  Level Denver Center
Fri 08:23:23 AM 43.4900 -108.3147 158° South 429 494 25,000  Level Denver Center
Fri 08:24:23 AM 43.3919 -108.2242 146° Southeast 429 494 25,000  Level Denver Center
Fri 08:25:24 AM 43.2989 -108.1256 142° Southeast 424 488 25,000  Level Denver Center
Fri 08:26:24 AM 43.2053 -108.0247 142° Southeast 428 493 25,000  Level Denver Center
Fri 08:27:25 AM 43.1003 -107.9144 143° Southeast 424 488 25,000  Level Denver Center
Fri 08:28:26 AM 43.0100 -107.8197 142° Southeast 426 490 25,000  Level Denver Center
Fri 08:29:26 AM 42.9192 -107.7250 143° Southeast 428 493 25,000  Level Denver Center
Fri 08:30:27 AM 42.8136 -107.6150 143° Southeast 427 491 25,000  Level Denver Center
Fri 08:31:27 AM 42.7225 -107.5211 143° Southeast 427 491 25,000  Level Denver Center
Fri 08:32:28 AM 42.6308 -107.4256 143° Southeast 432 497 25,000  Level Denver Center
Fri 08:33:29 AM 42.5403 -107.3331 143° Southeast 426 490 25,000  Level Denver Center
Fri 08:34:29 AM 42.4344 -107.2242 143° Southeast 426 490 25,000  Level Denver Center
Fri 08:35:30 AM 42.3431 -107.1311 143° Southeast 426 490 25,000  Level Denver Center
Fri 08:36:31 AM 42.2531 -107.0386 143° Southeast 426 490 25,000  Level Denver Center
Fri 08:37:31 AM 42.1467 -106.9314 143° Southeast 427 491 25,000  Level Denver Center
Fri 08:38:32 AM 42.0556 -106.8397 143° Southeast 427 491 25,000  Level Denver Center
Fri 08:39:33 AM 41.9647 -106.7478 143° Southeast 427 491 25,000  Level Denver Center
Fri 08:40:33 AM 41.8578 -106.6417 144° Southeast 427 491 25,000  Level Denver Center
Fri 08:41:34 AM 41.7658 -106.5500 143° Southeast 430 495 25,000  Level Denver Center
Fri 08:42:35 AM 41.6722 -106.4567 143° Southeast 428 493 25,000  Level Denver Center
Fri 08:43:36 AM 41.5661 -106.3514 143° Southeast 427 491 25,000  Level Denver Center
Fri 08:44:36 AM 41.4747 -106.2619 144° Southeast 426 490 25,000  Level Denver Center
Fri 08:45:37 AM 41.3686 -106.2064 159° South 427 491 25,000  Level Denver Center
Fri 08:46:38 AM 41.2425 -106.1517 162° South 429 494 25,000  Level Denver Center
Fri 08:47:39 AM 41.1325 -106.1058 163° South 431 496 25,000  Level Denver Center
Fri 08:48:40 AM 41.0283 -106.0478 157° South 426 490 25,000  Level Denver Center
Fri 08:49:40 AM 40.9144 -105.9819 156° South 435 501 25,000 -198 Level Denver Center
Fri 08:50:41 AM 40.8378 -105.8658 131° Southeast 425 489 24,600 -787 Descending Denver Center
Fri 08:51:42 AM 40.7678 -105.7361 125° Southeast 431 496 23,400 -1,328 Descending Denver Center
Fri 08:52:43 AM 40.7000 -105.6153 126° Southeast 417 480 21,900 -1,388 Descending Denver Center
Fri 08:53:43 AM 40.6361 -105.4986 126° Southeast 396 456 20,600 -1,240 Descending Denver Center
Fri 08:54:44 AM 40.5719 -105.3819 126° Southeast 392 451 19,400 -1,230 Descending Denver Center
Fri 08:55:45 AM 40.5100 -105.2689 126° Southeast 386 444 18,100 -1,230 Descending Denver Center
Fri 08:56:46 AM 40.4664 -105.1433 115° Southeast 329 379 16,900 -1,180 Descending Denver Center
Fri 08:57:47 AM 40.4356 -105.0342 110° East 321 369 15,700 -1,091 Descending Denver Center
Fri 08:58:47 AM 40.4061 -104.9325 111° Southeast 304 350 14,700 -992 Descending Denver Center
Fri 08:59:48 AM 40.3386 -104.8708 145° Southeast 313 360 13,700 -1,279 Descending Denver Center
Fri 09:00:49 AM 40.2556 -104.8286 159° South 297 342 12,100 -1,475 Descending Denver Center
Fri 09:01:50 AM 40.1800 -104.7922 160° South 289 333 10,700 -1,279 Descending Denver Center
Fri 09:02:51 AM 40.1075 -104.7558 159° South 280 322 9,500 -1,140 Descending Denver Center
Fri 09:03:51 AM 40.0425 -104.7217 158° South 253 291 8,400 -1,190 Descending Denver Center
Fri 09:04:52 AM 39.9861 -104.7000 164° South 214 246 7,100 -1,082 Descending Denver Center
Fri 09:05:53 AM 39.9361 -104.6953 176° South 178 205 6,200 -836 Descending Denver Center
Fri 09:06:54 AM 39.8958 -104.6958 181° South 147 169 5,400 -787 Descending Denver Center

Login

Don't have an account? Register now (free) for customized features, flight alerts, and more!